createdAt,value
2023-03-31T00:01:34.011Z,95987.00
2023-03-31T00:04:04.955Z,95992.31
2023-03-31T00:06:38.052Z,95992.88
2023-03-31T00:09:07.867Z,95983.53
2023-03-31T00:11:37.623Z,95982.66
2023-03-31T00:14:07.260Z,95977.31
2023-03-31T00:16:37.078Z,95972.38
2023-03-31T00:19:05.694Z,95990.19
2023-03-31T00:21:34.688Z,95988.59
2023-03-31T00:24:04.764Z,95994.78
2023-03-31T00:26:33.878Z,95991.09
2023-03-31T00:29:02.558Z,95979.72
2023-03-31T00:31:30.755Z,95983.94
2023-03-31T00:34:00.231Z,95983.16
2023-03-31T00:36:28.522Z,95989.78
2023-03-31T00:38:59.189Z,95993.34
2023-03-31T00:41:27.762Z,95981.69
2023-03-31T00:44:06.435Z,95988.09
2023-03-31T00:46:35.691Z,95974.47
2023-03-31T00:49:05.304Z,95977.13
2023-03-31T00:51:35.087Z,95961.00
2023-03-31T00:54:08.528Z,95949.41
2023-03-31T00:56:39.911Z,95961.47
2023-03-31T00:59:12.194Z,95960.63
2023-03-31T01:01:43.749Z,95952.59
2023-03-31T01:04:16.475Z,95958.16
2023-03-31T01:06:51.884Z,95947.94
2023-03-31T01:09:20.478Z,95952.81
2023-03-31T01:11:49.525Z,95949.09
2023-03-31T01:14:17.499Z,95939.69
2023-03-31T01:16:45.353Z,95944.13
2023-03-31T01:19:26.101Z,95947.47
2023-03-31T01:22:41.566Z,95933.03
2023-03-31T01:25:45.390Z,95932.22
2023-03-31T01:28:24.848Z,95933.09
2023-03-31T01:31:26.730Z,95931.50
2023-03-31T01:34:36.704Z,95924.25
2023-03-31T01:37:57.361Z,95924.31
2023-03-31T01:40:54.364Z,95908.81
2023-03-31T01:43:27.735Z,95899.50
2023-03-31T01:46:02.112Z,95896.22
2023-03-31T01:48:43.111Z,95898.38
2023-03-31T01:51:16.798Z,95892.78
2023-03-31T01:53:50.404Z,95893.22
2023-03-31T01:56:25.965Z,95887.66
2023-03-31T01:58:59.323Z,95895.53
2023-03-31T02:01:32.278Z,95885.41
2023-03-31T02:04:06.042Z,95891.72
2023-03-31T02:06:39.892Z,95883.63
2023-03-31T02:09:11.920Z,95886.13
2023-03-31T02:11:43.521Z,95877.72
2023-03-31T02:14:18.748Z,95861.25
2023-03-31T02:16:50.617Z,95856.50
2023-03-31T02:19:23.459Z,95849.72
2023-03-31T02:21:52.277Z,95846.34
2023-03-31T02:24:22.626Z,95845.06
2023-03-31T02:26:56.816Z,95820.91
2023-03-31T02:29:24.734Z,95820.78
2023-03-31T02:32:01.337Z,95817.53
2023-03-31T02:34:29.100Z,95814.84
2023-03-31T02:36:56.980Z,95814.13
2023-03-31T02:39:29.376Z,95798.91
2023-03-31T02:41:58.684Z,95816.22
2023-03-31T02:44:26.458Z,95798.09
2023-03-31T02:46:55.394Z,95789.28
2023-03-31T02:49:23.972Z,95795.03
2023-03-31T02:52:21.080Z,95792.53
2023-03-31T02:55:16.501Z,95783.53
2023-03-31T02:58:22.485Z,95769.44
2023-03-31T03:01:05.696Z,95759.00
2023-03-31T03:03:44.034Z,95755.34
2023-03-31T03:06:25.432Z,95759.91
2023-03-31T03:09:06.477Z,95742.44
2023-03-31T03:11:42.795Z,95735.72
2023-03-31T03:14:21.908Z,95732.16
2023-03-31T03:16:55.346Z,95715.47
2023-03-31T03:19:24.920Z,95710.09
2023-03-31T03:21:52.748Z,95693.56
2023-03-31T03:24:22.702Z,95671.53
2023-03-31T03:26:50.548Z,95648.81
2023-03-31T03:29:19.632Z,95637.25
2023-03-31T03:31:47.317Z,95639.31
2023-03-31T03:34:15.167Z,95637.31
2023-03-31T03:36:42.947Z,95620.31
2023-03-31T03:39:10.724Z,95615.38
2023-03-31T03:41:38.567Z,95618.28
2023-03-31T03:44:06.528Z,95601.50
2023-03-31T03:46:35.779Z,95594.50
2023-03-31T03:49:03.659Z,95586.13
2023-03-31T03:51:31.534Z,95571.94
2023-03-31T03:53:59.287Z,95557.47
2023-03-31T03:56:27.558Z,95537.28
2023-03-31T03:58:55.656Z,95535.09
2023-03-31T04:01:23.499Z,95542.34
2023-03-31T04:03:52.795Z,95536.56
2023-03-31T04:06:20.823Z,95546.66
2023-03-31T04:08:48.702Z,95537.44
2023-03-31T04:11:19.180Z,95523.63
2023-03-31T04:13:48.165Z,95527.81
2023-03-31T04:16:16.874Z,95516.84
2023-03-31T04:18:44.761Z,95509.28
2023-03-31T04:21:22.680Z,95512.75
2023-03-31T04:23:59.107Z,95522.38
2023-03-31T04:26:42.657Z,95514.41
2023-03-31T04:29:12.905Z,95517.09
2023-03-31T04:31:42.894Z,95489.75
2023-03-31T04:34:14.015Z,95491.03
2023-03-31T04:36:47.081Z,95478.84
2023-03-31T04:39:16.381Z,95474.97
2023-03-31T04:41:44.397Z,95468.09
2023-03-31T04:44:12.206Z,95463.75
2023-03-31T04:46:40.230Z,95451.66
2023-03-31T04:49:08.046Z,95446.59
2023-03-31T04:51:35.988Z,95461.78
2023-03-31T04:54:05.390Z,95455.00
2023-03-31T04:56:33.140Z,95427.25
2023-03-31T04:59:01.092Z,95427.06
2023-03-31T05:01:33.106Z,95417.03
2023-03-31T05:04:00.968Z,95424.97
2023-03-31T05:06:29.091Z,95423.72
2023-03-31T05:08:56.878Z,95413.66
2023-03-31T05:11:26.434Z,95406.25
2023-03-31T05:13:54.375Z,95387.56
2023-03-31T05:16:22.338Z,95376.56
2023-03-31T05:18:50.370Z,95389.16
2023-03-31T05:21:19.700Z,95398.25
2023-03-31T05:23:48.110Z,95385.56
2023-03-31T05:26:16.783Z,95390.56
2023-03-31T05:28:45.965Z,95404.47
2023-03-31T05:31:14.368Z,95382.81
2023-03-31T05:33:42.532Z,95382.28
2023-03-31T05:36:11.881Z,95401.78
2023-03-31T05:38:39.923Z,95411.94
2023-03-31T05:41:09.360Z,95427.66
2023-03-31T05:43:37.438Z,95424.75
2023-03-31T05:46:07.371Z,95442.72
2023-03-31T05:48:35.575Z,95438.16
2023-03-31T05:51:03.682Z,95443.47
2023-03-31T05:53:31.675Z,95441.38
2023-03-31T05:56:00.595Z,95414.59
2023-03-31T05:58:28.903Z,95418.41
2023-03-31T06:01:07.351Z,95417.03
2023-03-31T06:03:36.477Z,95411.38
2023-03-31T06:06:05.403Z,95415.69
2023-03-31T06:08:33.682Z,95413.91
2023-03-31T06:11:01.634Z,95408.31
2023-03-31T06:13:29.479Z,95419.00
2023-03-31T06:15:58.641Z,95427.56
2023-03-31T06:18:29.470Z,95428.69
2023-03-31T06:20:58.289Z,95423.31
2023-03-31T06:23:26.719Z,95426.22
2023-03-31T06:25:55.144Z,95435.97
2023-03-31T06:28:23.202Z,95429.31
2023-03-31T06:30:50.934Z,95434.25
2023-03-31T06:33:18.698Z,95428.91
2023-03-31T06:35:47.878Z,95438.25
2023-03-31T06:38:15.656Z,95435.38
2023-03-31T06:40:43.562Z,95431.66
2023-03-31T06:43:11.390Z,95437.81
2023-03-31T06:45:39.309Z,95427.69
2023-03-31T06:48:08.328Z,95436.56
2023-03-31T06:50:39.530Z,95436.28
2023-03-31T06:53:09.095Z,95444.88
2023-03-31T06:55:37.301Z,95439.78
2023-03-31T06:58:05.366Z,95455.59
2023-03-31T07:00:33.744Z,95444.59
2023-03-31T07:03:02.069Z,95460.13
2023-03-31T07:05:30.037Z,95465.50
2023-03-31T07:07:59.435Z,95467.09
2023-03-31T07:10:31.260Z,95459.84
2023-03-31T07:12:59.287Z,95460.13
2023-03-31T07:15:28.675Z,95427.91
2023-03-31T07:18:02.969Z,95446.69
2023-03-31T07:20:32.682Z,95451.50
2023-03-31T07:23:00.493Z,95458.41
2023-03-31T07:25:29.676Z,95457.28
2023-03-31T07:27:57.461Z,95448.63
2023-03-31T07:30:25.359Z,95432.41
2023-03-31T07:32:54.850Z,95438.34
2023-03-31T07:35:23.119Z,95427.00
2023-03-31T07:37:52.242Z,95435.78
2023-03-31T07:40:22.795Z,95446.59
2023-03-31T07:42:53.004Z,95460.78
2023-03-31T07:45:22.610Z,95460.53
2023-03-31T07:47:51.178Z,95449.25
2023-03-31T07:50:19.513Z,95444.28
2023-03-31T07:52:47.675Z,95436.94
2023-03-31T07:55:16.608Z,95429.88
2023-03-31T07:57:46.364Z,95437.84
2023-03-31T08:00:17.769Z,95441.13
2023-03-31T08:02:45.744Z,95430.94
2023-03-31T08:05:15.735Z,95434.84
2023-03-31T08:07:45.936Z,95418.66
2023-03-31T08:10:17.826Z,95411.50
2023-03-31T08:12:45.973Z,95419.09
2023-03-31T08:15:15.571Z,95409.16
2023-03-31T08:17:43.634Z,95436.31
2023-03-31T08:20:12.659Z,95431.72
2023-03-31T08:22:41.376Z,95440.88
2023-03-31T08:25:11.286Z,95447.59
2023-03-31T08:27:40.969Z,95436.25
2023-03-31T08:30:11.682Z,95439.75
2023-03-31T08:32:40.931Z,95437.50
2023-03-31T08:35:09.678Z,95437.25
2023-03-31T08:37:37.904Z,95448.31
2023-03-31T08:40:09.841Z,95454.16
2023-03-31T08:42:42.984Z,95450.41
2023-03-31T08:45:18.460Z,95445.88
2023-03-31T08:47:49.551Z,95447.53
2023-03-31T08:50:20.001Z,95444.81
2023-03-31T08:52:53.480Z,95447.09
2023-03-31T08:55:27.929Z,95435.34
2023-03-31T08:58:03.043Z,95440.22
2023-03-31T09:00:38.163Z,95432.91
2023-03-31T09:03:19.393Z,95425.97
2023-03-31T09:06:00.744Z,95420.91
2023-03-31T09:08:36.099Z,95438.06
2023-03-31T09:11:25.976Z,95434.88
2023-03-31T09:14:16.568Z,95443.44
2023-03-31T09:16:51.519Z,95450.50
2023-03-31T09:19:30.599Z,95410.22
2023-03-31T09:22:01.414Z,95412.81
2023-03-31T09:24:32.904Z,95427.97
2023-03-31T09:27:03.974Z,95393.25
2023-03-31T09:29:42.317Z,95379.03
2023-03-31T09:32:16.637Z,95377.31
2023-03-31T09:34:47.188Z,95384.25
2023-03-31T09:37:15.103Z,95366.25
2023-03-31T09:39:43.214Z,95390.22
2023-03-31T09:42:14.448Z,95383.81
2023-03-31T09:44:45.846Z,95385.03
2023-03-31T09:47:20.509Z,95379.66
2023-03-31T09:49:53.574Z,95398.88
2023-03-31T09:52:30.103Z,95386.09
2023-03-31T09:55:01.327Z,95362.88
2023-03-31T09:57:33.539Z,95360.91
2023-03-31T10:00:16.314Z,95364.09
2023-03-31T10:02:46.103Z,95371.84
2023-03-31T10:05:28.288Z,95368.66
2023-03-31T10:08:29.469Z,95370.31
2023-03-31T10:11:00.168Z,95380.56
2023-03-31T10:13:31.120Z,95366.28
2023-03-31T10:16:04.812Z,95366.91
2023-03-31T10:18:36.288Z,95370.28
2023-03-31T10:21:07.982Z,95365.25
2023-03-31T10:23:37.073Z,95348.16
2023-03-31T10:26:06.027Z,95332.56
2023-03-31T10:28:37.236Z,95326.47
2023-03-31T10:31:06.418Z,95321.38
2023-03-31T10:33:35.764Z,95282.09
2023-03-31T10:36:10.973Z,95303.03
2023-03-31T10:38:42.541Z,95307.91
2023-03-31T10:41:10.991Z,95330.50
2023-03-31T10:43:42.191Z,95308.25
2023-03-31T10:46:10.902Z,95308.09
2023-03-31T10:48:41.473Z,95288.44
2023-03-31T10:51:17.355Z,95285.28
2023-03-31T10:53:49.414Z,95310.66
2023-03-31T10:56:35.472Z,95305.09
2023-03-31T10:59:22.457Z,95294.75
2023-03-31T11:02:18.746Z,95305.16
2023-03-31T11:04:58.242Z,95320.19
2023-03-31T11:07:38.797Z,95316.84
2023-03-31T11:10:24.514Z,95333.66
2023-03-31T11:12:59.489Z,95318.97
2023-03-31T11:15:34.315Z,95316.69
2023-03-31T11:18:15.905Z,95322.09
2023-03-31T11:20:57.317Z,95309.81
2023-03-31T11:23:36.820Z,95313.97
2023-03-31T11:26:10.879Z,95309.03
2023-03-31T11:28:53.361Z,95291.59
2023-03-31T11:31:32.616Z,95273.06
2023-03-31T11:34:14.338Z,95287.22
2023-03-31T11:36:58.702Z,95277.78
2023-03-31T11:39:39.949Z,95290.28
2023-03-31T11:42:16.187Z,95286.47
2023-03-31T11:44:47.677Z,95278.44
2023-03-31T11:47:20.095Z,95271.06
2023-03-31T11:49:54.806Z,95257.09
2023-03-31T11:52:30.681Z,95245.63
2023-03-31T11:55:04.493Z,95227.47
2023-03-31T11:57:37.675Z,95234.56
2023-03-31T12:00:12.869Z,95236.13
2023-03-31T12:02:47.433Z,95249.28
2023-03-31T12:05:17.925Z,95253.34
2023-03-31T12:07:50.641Z,95258.34
2023-03-31T12:10:22.797Z,95275.25
2023-03-31T12:12:56.240Z,95285.94
2023-03-31T12:15:27.083Z,95318.00
2023-03-31T12:18:01.468Z,95347.63
2023-03-31T12:20:35.005Z,95359.53
2023-03-31T12:23:04.817Z,95400.44
2023-03-31T12:25:45.413Z,95420.09
2023-03-31T12:28:13.573Z,95392.56
2023-03-31T12:30:44.264Z,95414.97
2023-03-31T12:33:17.504Z,95426.91
2023-03-31T12:35:59.211Z,95411.75
2023-03-31T12:38:42.728Z,95378.97
2023-03-31T12:41:19.080Z,95377.22
2023-03-31T12:43:58.035Z,95386.75
2023-03-31T12:46:48.463Z,95374.34
2023-03-31T12:49:40.565Z,95400.41
2023-03-31T12:52:13.456Z,95388.06
2023-03-31T12:55:25.588Z,95375.72
2023-03-31T12:57:54.716Z,95374.06
2023-03-31T13:00:27.463Z,95366.13
2023-03-31T13:03:34.010Z,95367.44
2023-03-31T13:06:02.123Z,95365.78
2023-03-31T13:08:53.531Z,95370.41
2023-03-31T13:11:23.957Z,95369.25
2023-03-31T13:14:01.824Z,95354.75
2023-03-31T13:16:30.613Z,95343.50
2023-03-31T13:18:59.054Z,95348.91
2023-03-31T13:21:27.377Z,95349.00
2023-03-31T13:24:01.094Z,95358.25
2023-03-31T13:26:41.675Z,95348.25
2023-03-31T13:29:54.887Z,95344.50
2023-03-31T13:32:26.918Z,95358.44
2023-03-31T13:35:00.898Z,95343.22
2023-03-31T13:37:47.770Z,95332.75
2023-03-31T13:40:31.890Z,95333.03
2023-03-31T13:43:26.433Z,95324.72
2023-03-31T13:46:16.919Z,95308.31
2023-03-31T13:48:56.129Z,95290.03
2023-03-31T13:51:30.344Z,95306.63
2023-03-31T13:54:38.300Z,95310.31
2023-03-31T13:58:24.715Z,95288.88
2023-03-31T14:01:07.916Z,95288.59
2023-03-31T14:03:49.431Z,95274.66
2023-03-31T14:06:25.048Z,95286.03
2023-03-31T14:08:56.289Z,95260.34
2023-03-31T14:11:26.301Z,95266.63
2023-03-31T14:14:01.857Z,95260.88
2023-03-31T14:16:34.757Z,95252.22
2023-03-31T14:21:53.375Z,95263.81
2023-03-31T14:24:30.481Z,95272.38
2023-03-31T14:27:07.982Z,95261.88
2023-03-31T14:29:44.012Z,95248.13
2023-03-31T14:32:24.392Z,95263.06
2023-03-31T14:35:08.020Z,95231.03
2023-03-31T14:37:35.989Z,95244.03
2023-03-31T14:40:05.037Z,95234.31
2023-03-31T14:42:39.601Z,95224.31
2023-03-31T14:45:16.582Z,95221.06
2023-03-31T14:47:55.036Z,95214.63
2023-03-31T14:50:23.436Z,95210.16
2023-03-31T14:52:53.549Z,95211.66
2023-03-31T14:55:26.535Z,95214.84
2023-03-31T14:57:59.222Z,95221.22
2023-03-31T15:00:31.380Z,95276.59
2023-03-31T15:03:03.536Z,95292.31
2023-03-31T15:05:34.008Z,95312.06
2023-03-31T15:08:05.112Z,95322.16
2023-03-31T15:10:38.032Z,95359.97
2023-03-31T15:13:09.669Z,95390.22
2023-03-31T15:15:37.412Z,95393.16
2023-03-31T15:18:08.236Z,95383.25
2023-03-31T15:20:39.328Z,95367.13
2023-03-31T15:23:24.654Z,95329.03
2023-03-31T15:25:57.401Z,95320.06
2023-03-31T15:28:29.000Z,95322.44
2023-03-31T15:31:08.958Z,95320.34
2023-03-31T15:33:42.430Z,95319.66
2023-03-31T15:36:12.315Z,95330.31
2023-03-31T15:38:40.601Z,95338.78
2023-03-31T15:41:13.963Z,95363.75
2023-03-31T15:43:48.173Z,95397.75
2023-03-31T15:46:21.525Z,95413.47
2023-03-31T15:48:55.044Z,95433.88
2023-03-31T15:51:26.747Z,95422.75
2023-03-31T15:54:33.782Z,95392.56
2023-03-31T15:57:03.224Z,95402.09
2023-03-31T15:59:41.750Z,95396.78
2023-03-31T16:02:24.397Z,95383.06
2023-03-31T16:04:57.969Z,95398.16
2023-03-31T16:07:28.172Z,95403.91
2023-03-31T16:10:01.425Z,95414.09
2023-03-31T16:12:33.121Z,95448.31
2023-03-31T16:15:04.458Z,95447.22
2023-03-31T16:17:35.580Z,95443.59
2023-03-31T16:20:11.019Z,95422.44
2023-03-31T16:22:41.756Z,95424.03
2023-03-31T16:25:12.228Z,95433.59
2023-03-31T16:27:44.818Z,95435.06
2023-03-31T16:30:16.242Z,95433.47
2023-03-31T16:33:05.018Z,95434.22
2023-03-31T16:35:36.876Z,95430.31
2023-03-31T16:38:05.330Z,95436.00
2023-03-31T16:40:38.410Z,95436.34
2023-03-31T16:43:12.450Z,95432.59
2023-03-31T16:45:40.414Z,95421.22
2023-03-31T16:51:00.353Z,95398.94
2023-03-31T16:53:30.187Z,95398.34
2023-03-31T16:55:58.814Z,95386.59
2023-03-31T16:58:28.410Z,95391.69
2023-03-31T17:00:56.704Z,95359.25
2023-03-31T17:03:25.622Z,95381.94
2023-03-31T17:05:59.004Z,95368.47
2023-03-31T17:08:29.134Z,95376.94
2023-03-31T17:11:00.962Z,95388.00
2023-03-31T17:13:28.800Z,95376.50
2023-03-31T17:16:04.678Z,95384.84
2023-03-31T17:18:43.857Z,95381.56
2023-03-31T17:21:13.643Z,95378.41
2023-03-31T17:23:43.655Z,95348.84
2023-03-31T17:26:12.915Z,95357.09
2023-03-31T17:28:41.577Z,95351.97
2023-03-31T17:31:13.652Z,95358.38
2023-03-31T17:33:42.100Z,95347.97
2023-03-31T17:36:10.622Z,95357.88
2023-03-31T17:38:39.905Z,95351.19
2023-03-31T17:41:11.555Z,95350.53
2023-03-31T17:43:39.291Z,95355.34
2023-03-31T17:46:10.836Z,95338.56
2023-03-31T17:48:40.181Z,95340.50
2023-03-31T17:51:09.252Z,95351.50
2023-03-31T17:53:37.240Z,95336.75
2023-03-31T17:56:05.966Z,95338.03
2023-03-31T17:58:35.183Z,95346.09
2023-03-31T18:01:06.031Z,95353.19
2023-03-31T18:03:34.661Z,95346.75
2023-03-31T18:06:06.690Z,95358.16
2023-03-31T18:08:34.822Z,95368.06
2023-03-31T18:11:04.974Z,95372.38
2023-03-31T18:13:33.121Z,95394.31
2023-03-31T18:16:02.575Z,95401.69
2023-03-31T18:18:30.576Z,95413.28
2023-03-31T18:20:58.571Z,95431.69
2023-03-31T18:23:26.327Z,95452.22
2023-03-31T18:25:54.195Z,95479.59
2023-03-31T18:28:22.133Z,95486.47
2023-03-31T18:30:50.039Z,95486.31
2023-03-31T18:33:19.959Z,95490.38
2023-03-31T18:35:48.383Z,95487.66
2023-03-31T18:38:16.526Z,95473.63
2023-03-31T18:40:49.050Z,95490.56
2023-03-31T18:43:18.302Z,95494.28
2023-03-31T18:45:49.566Z,95487.50
2023-03-31T18:48:18.794Z,95484.78
2023-03-31T18:50:47.994Z,95464.16
2023-03-31T18:53:16.165Z,95473.09
2023-03-31T18:55:44.196Z,95477.03
2023-03-31T18:58:12.090Z,95450.00
2023-03-31T19:00:41.976Z,95464.44
2023-03-31T19:03:10.300Z,95482.53
2023-03-31T19:05:38.698Z,95521.34
2023-03-31T19:08:08.156Z,95508.16
2023-03-31T19:10:36.482Z,95511.22
2023-03-31T19:13:04.570Z,95500.09
2023-03-31T19:15:33.178Z,95496.59
2023-03-31T19:18:01.389Z,95488.09
2023-03-31T19:20:29.236Z,95498.84
2023-03-31T19:22:57.029Z,95486.44
2023-03-31T19:25:26.431Z,95495.28
2023-03-31T19:27:54.618Z,95499.09
2023-03-31T19:30:24.951Z,95501.78
2023-03-31T19:32:53.662Z,95493.34
2023-03-31T19:35:22.359Z,95507.16
2023-03-31T19:37:51.540Z,95511.19
2023-03-31T19:40:19.600Z,95493.53
2023-03-31T19:42:48.747Z,95506.03
2023-03-31T19:45:16.623Z,95522.59
2023-03-31T19:47:44.502Z,95517.75
2023-03-31T19:50:13.454Z,95516.78
2023-03-31T19:52:41.432Z,95532.28
2023-03-31T19:55:09.413Z,95521.53
2023-03-31T19:57:37.192Z,95526.94
2023-03-31T20:00:08.157Z,95535.25
2023-03-31T20:02:36.183Z,95527.25
2023-03-31T20:05:04.611Z,95531.47
2023-03-31T20:07:32.362Z,95520.81
2023-03-31T20:10:00.162Z,95532.09
2023-03-31T20:12:28.777Z,95522.41
2023-03-31T20:14:56.591Z,95518.22
2023-03-31T20:17:25.913Z,95532.03
2023-03-31T20:19:54.295Z,95523.34
2023-03-31T20:22:22.193Z,95525.78
2023-03-31T20:24:50.045Z,95505.25
2023-03-31T20:27:17.844Z,95508.13
2023-03-31T20:29:45.720Z,95523.97
2023-03-31T20:32:17.087Z,95529.94
2023-03-31T20:34:46.221Z,95509.50
2023-03-31T20:37:14.138Z,95511.53
2023-03-31T20:39:42.385Z,95513.94
2023-03-31T20:42:11.241Z,95501.34
2023-03-31T20:44:39.040Z,95505.91
2023-03-31T20:47:07.357Z,95511.88
2023-03-31T20:49:35.288Z,95503.59
2023-03-31T20:52:04.790Z,95477.41
2023-03-31T20:54:32.644Z,95498.75
2023-03-31T20:57:05.584Z,95491.63
2023-03-31T20:59:33.959Z,95499.63
2023-03-31T21:02:03.225Z,95514.06
2023-03-31T21:04:31.083Z,95494.41
2023-03-31T21:06:59.822Z,95488.22
2023-03-31T21:09:28.948Z,95479.16
2023-03-31T21:11:56.710Z,95483.75
2023-03-31T21:14:24.473Z,95490.50
2023-03-31T21:16:52.384Z,95484.66
2023-03-31T21:19:20.169Z,95492.13
2023-03-31T21:21:48.073Z,95494.53
2023-03-31T21:24:16.011Z,95492.13
2023-03-31T21:26:45.186Z,95496.31
2023-03-31T21:29:13.350Z,95478.72
2023-03-31T21:31:41.611Z,95499.44
2023-03-31T21:34:09.422Z,95490.38
2023-03-31T21:36:37.173Z,95494.66
2023-03-31T21:39:05.370Z,95498.31
2023-03-31T21:41:33.836Z,95490.44
2023-03-31T21:44:03.663Z,95520.00
2023-03-31T21:46:34.152Z,95523.50
2023-03-31T21:49:02.876Z,95541.09
2023-03-31T21:51:31.318Z,95519.94
2023-03-31T21:53:59.493Z,95528.75
2023-03-31T21:56:28.577Z,95544.31
2023-03-31T21:59:00.418Z,95539.97
2023-03-31T22:01:29.708Z,95538.84
2023-03-31T22:03:57.588Z,95535.47
2023-03-31T22:06:25.390Z,95538.13
2023-03-31T22:08:53.188Z,95534.28
2023-03-31T22:11:21.255Z,95524.19
2023-03-31T22:13:49.088Z,95526.94
2023-03-31T22:16:18.836Z,95524.50
2023-03-31T22:18:50.204Z,95512.78
2023-03-31T22:21:20.204Z,95513.69
2023-03-31T22:23:48.370Z,95509.25
2023-03-31T22:26:16.270Z,95514.00
2023-03-31T22:28:44.143Z,95511.75
2023-03-31T22:31:11.885Z,95511.69
2023-03-31T22:33:39.967Z,95509.09
2023-03-31T22:36:09.768Z,95501.66
2023-03-31T22:38:37.626Z,95510.72
2023-03-31T22:41:05.761Z,95518.69
2023-03-31T22:43:33.902Z,95521.59
2023-03-31T22:46:03.976Z,95497.31
2023-03-31T22:48:32.088Z,95504.81
2023-03-31T22:50:59.981Z,95514.97
2023-03-31T22:53:29.131Z,95535.59
2023-03-31T22:55:56.927Z,95524.09
2023-03-31T22:58:24.691Z,95537.44
2023-03-31T23:00:59.296Z,95543.06
2023-03-31T23:03:27.528Z,95529.34
2023-03-31T23:05:55.661Z,95532.34
2023-03-31T23:08:23.909Z,95546.47
2023-03-31T23:10:57.720Z,95528.22
2023-03-31T23:13:26.223Z,95526.78
2023-03-31T23:15:54.098Z,95518.31
2023-03-31T23:18:22.424Z,95522.41
2023-03-31T23:20:50.522Z,95519.19
2023-03-31T23:23:18.239Z,95513.38
2023-03-31T23:25:46.083Z,95516.84
2023-03-31T23:28:16.676Z,95517.25
2023-03-31T23:30:53.006Z,95498.69
2023-03-31T23:33:20.793Z,95506.75
2023-03-31T23:35:49.095Z,95496.50
2023-03-31T23:38:17.143Z,95499.66
2023-03-31T23:40:46.435Z,95509.25
2023-03-31T23:43:16.262Z,95495.41
2023-03-31T23:45:44.252Z,95514.16
2023-03-31T23:48:12.077Z,95493.88
2023-03-31T23:50:39.988Z,95493.81
2023-03-31T23:53:07.978Z,95507.13
2023-03-31T23:55:35.814Z,95507.88
2023-03-31T23:58:03.974Z,95510.13
